Wichita Mid Continent Airport
KICT : rendu visible

Aérodrome :











RETROUVEZ-NOUS SUR...

 
LOGIN :

Register | Disclaimer

   EN    FR    IT 

 















- Airport Elevation : 1333 ft
- IATA code : ICT


KICT - Wichita Mid Continent

CURRENT METAR :
  • 221253Z 33004KT 10SM CLR 09/05 A3040 RMK AO2 SLP296 T00940050

EXPIRED METARs :
  • 221153Z 33005KT 10SM BKN120 09/05 A3037 RMK AO2 SLP283 T00890050 10100 20061 51015
  • 221053Z 33004KT 10SM CLR 08/05 A3036 RMK AO2 SLP279 T00830050

TAF KICT
Valid from the 22 at 12:00 until the 23 at 12:00 UTC


221125Z 2212/2312 VRB04KT P6SM FEW130 BKN200
FM221800 06008KT P6SM SCT200
FM222200 09010KT P6SM BKN200
KZKC FIR / North America





SOURCES & CREDITS :

   NOAA       Earth
Advisory